createdAt,value
2022-08-09T00:01:58.219Z,56.02
2022-08-09T00:06:16.614Z,56.45
2022-08-09T00:09:04.284Z,56.56
2022-08-09T00:12:27.070Z,56.28
2022-08-09T00:15:58.865Z,56.24
2022-08-09T00:19:23.684Z,55.94
2022-08-09T00:22:49.222Z,56.03
2022-08-09T00:26:14.475Z,56.38
2022-08-09T00:29:39.719Z,56.32
2022-08-09T00:33:17.911Z,56.11
2022-08-09T00:36:41.647Z,56.61
2022-08-09T00:40:12.713Z,56.91
2022-08-09T00:44:14.088Z,56.76
2022-08-09T00:47:24.731Z,57.10
2022-08-09T00:50:47.235Z,57.12
2022-08-09T00:54:14.367Z,57.16
2022-08-09T00:57:37.583Z,57.02
2022-08-09T01:01:08.145Z,57.19
2022-08-09T01:04:44.125Z,57.17
2022-08-09T01:08:12.433Z,57.04
2022-08-09T01:11:55.679Z,57.25
2022-08-09T01:15:22.131Z,57.50
2022-08-09T01:19:02.027Z,57.34
2022-08-09T01:22:55.276Z,57.68
2022-08-09T01:26:53.463Z,57.39
2022-08-09T01:30:33.590Z,57.39
2022-08-09T01:34:01.733Z,57.59
2022-08-09T01:37:43.176Z,57.44
2022-08-09T01:41:14.354Z,57.99
2022-08-09T01:44:39.454Z,57.87
2022-08-09T01:48:06.096Z,58.21
2022-08-09T01:51:32.279Z,58.42
2022-08-09T01:54:58.351Z,58.62
2022-08-09T01:58:24.146Z,58.21
2022-08-09T02:02:00.081Z,58.23
2022-08-09T02:05:37.919Z,58.40
2022-08-09T02:09:06.553Z,58.18
2022-08-09T02:12:30.751Z,57.97
2022-08-09T02:15:55.339Z,58.09
2022-08-09T02:19:19.640Z,57.92
2022-08-09T02:22:52.688Z,58.38
2022-08-09T02:26:25.228Z,58.23
2022-08-09T02:29:52.814Z,58.54
2022-08-09T02:33:17.382Z,58.72
2022-08-09T02:36:45.811Z,58.51
2022-08-09T02:40:15.917Z,58.67
2022-08-09T02:43:54.652Z,58.70
2022-08-09T02:47:20.994Z,58.81
2022-08-09T02:50:54.293Z,59.26
2022-08-09T02:54:21.768Z,58.79
2022-08-09T02:58:00.224Z,58.75
2022-08-09T03:01:29.685Z,59.15
2022-08-09T03:05:07.499Z,59.00
2022-08-09T03:08:39.375Z,59.25
2022-08-09T03:12:11.314Z,59.14
2022-08-09T03:15:40.669Z,59.41
2022-08-09T03:19:59.588Z,59.41
2022-08-09T03:23:14.624Z,59.42
2022-08-09T03:26:39.656Z,59.88
2022-08-09T03:30:09.739Z,59.50
2022-08-09T03:33:54.233Z,59.48
2022-08-09T03:37:56.706Z,59.88
2022-08-09T03:40:57.936Z,59.78
2022-08-09T03:44:20.999Z,60.03
2022-08-09T03:47:50.744Z,60.63
2022-08-09T03:51:54.124Z,60.19
2022-08-09T03:54:57.379Z,60.59
2022-08-09T03:58:21.227Z,60.20
2022-08-09T04:01:44.103Z,60.17
2022-08-09T04:05:13.907Z,59.98
2022-08-09T04:08:48.619Z,59.58
2022-08-09T04:12:37.227Z,59.38
2022-08-09T04:16:20.494Z,59.32
2022-08-09T04:19:50.846Z,59.33
2022-08-09T04:23:24.410Z,59.55
2022-08-09T04:26:46.517Z,59.85
2022-08-09T04:30:11.141Z,60.26
2022-08-09T04:33:33.966Z,60.00
2022-08-09T04:37:14.970Z,59.73
2022-08-09T04:40:56.025Z,59.32
2022-08-09T04:44:18.742Z,59.41
2022-08-09T04:47:45.338Z,59.10
2022-08-09T04:51:22.074Z,58.94
2022-08-09T04:54:45.015Z,59.20
2022-08-09T04:58:09.601Z,58.50
2022-08-09T05:01:31.264Z,58.62
2022-08-09T05:04:55.807Z,58.64
2022-08-09T05:08:17.650Z,58.28
2022-08-09T05:11:39.522Z,58.67
2022-08-09T05:15:11.157Z,58.43
2022-08-09T05:18:55.367Z,58.81
2022-08-09T05:22:33.502Z,57.99
2022-08-09T05:25:57.114Z,58.55
2022-08-09T05:29:22.690Z,57.57
2022-08-09T05:32:50.779Z,57.62
2022-08-09T05:36:15.575Z,57.68
2022-08-09T05:39:43.278Z,57.54
2022-08-09T05:43:07.248Z,56.69
2022-08-09T05:46:30.198Z,56.52
2022-08-09T05:50:24.209Z,56.87
2022-08-09T05:53:56.665Z,57.23
2022-08-09T05:57:19.152Z,56.67
2022-08-09T06:00:41.066Z,55.97
2022-08-09T06:04:05.512Z,56.18
2022-08-09T06:07:29.372Z,56.04
2022-08-09T06:10:51.599Z,55.85
2022-08-09T06:14:13.138Z,55.47
2022-08-09T06:17:39.726Z,55.28
2022-08-09T06:21:04.130Z,55.19
2022-08-09T06:24:28.058Z,54.55
2022-08-09T06:27:51.440Z,54.18
2022-08-09T06:31:13.623Z,53.21
2022-08-09T06:34:35.654Z,53.36
2022-08-09T06:38:05.729Z,52.03
2022-08-09T06:42:07.531Z,51.93
2022-08-09T06:46:05.082Z,51.02
2022-08-09T06:48:56.381Z,51.17
2022-08-09T06:52:23.501Z,50.18
2022-08-09T06:55:48.414Z,51.00
2022-08-09T07:00:51.955Z,50.50
2022-08-09T07:02:55.718Z,50.75
2022-08-09T07:06:18.987Z,50.42
2022-08-09T07:09:57.344Z,51.01
2022-08-09T07:13:28.285Z,51.22
2022-08-09T07:16:57.672Z,50.73
2022-08-09T07:20:20.548Z,50.28
2022-08-09T07:23:46.715Z,49.93
2022-08-09T07:27:26.519Z,50.82
2022-08-09T07:30:55.791Z,50.02
2022-08-09T07:34:20.281Z,49.76
2022-08-09T07:37:45.610Z,49.57
2022-08-09T07:41:11.431Z,49.00
2022-08-09T07:44:51.798Z,48.86
2022-08-09T07:48:25.502Z,48.77
2022-08-09T07:52:05.419Z,48.34
2022-08-09T07:55:41.590Z,48.07
2022-08-09T07:59:25.426Z,46.90
2022-08-09T08:02:58.124Z,46.77
2022-08-09T08:06:21.173Z,47.02
2022-08-09T08:09:51.451Z,47.51
2022-08-09T08:13:15.531Z,46.21
2022-08-09T08:16:39.699Z,45.62
2022-08-09T08:20:13.774Z,45.57
2022-08-09T08:23:35.564Z,45.15
2022-08-09T08:26:58.883Z,45.27
2022-08-09T08:30:20.751Z,44.61
2022-08-09T08:33:53.505Z,44.29
2022-08-09T08:37:17.910Z,43.91
2022-08-09T08:40:40.000Z,43.71
2022-08-09T08:44:04.533Z,43.69
2022-08-09T08:47:27.589Z,44.09
2022-08-09T08:50:51.869Z,43.12
2022-08-09T08:54:20.203Z,43.98
2022-08-09T08:57:43.491Z,44.18
2022-08-09T09:01:20.819Z,44.03
2022-08-09T09:04:52.755Z,44.31
2022-08-09T09:08:29.988Z,45.32
2022-08-09T09:11:55.290Z,43.59
2022-08-09T09:15:28.456Z,42.43
2022-08-09T09:19:21.430Z,42.82
2022-08-09T09:22:51.819Z,42.56
2022-08-09T09:26:17.146Z,41.96
2022-08-09T09:33:44.989Z,42.13
2022-08-09T09:37:08.542Z,41.62
2022-08-09T09:40:46.347Z,42.10
2022-08-09T09:44:12.100Z,41.05
2022-08-09T09:47:42.161Z,40.58
2022-08-09T09:51:26.072Z,40.95
2022-08-09T09:55:28.491Z,41.98
2022-08-09T09:58:50.230Z,41.11
2022-08-09T10:02:15.504Z,41.05
2022-08-09T10:06:04.033Z,40.36
2022-08-09T10:09:22.134Z,40.07
2022-08-09T10:12:55.339Z,40.41
2022-08-09T10:16:57.284Z,39.77
2022-08-09T10:20:32.533Z,39.82
2022-08-09T10:24:03.852Z,39.33
2022-08-09T10:27:34.619Z,39.19
2022-08-09T10:34:44.941Z,38.53
2022-08-09T10:38:55.238Z,38.26
2022-08-09T10:41:52.073Z,37.88
2022-08-09T10:45:16.699Z,37.80
2022-08-09T10:48:47.947Z,36.99
2022-08-09T10:52:30.684Z,37.08
2022-08-09T10:56:17.527Z,37.66
2022-08-09T10:59:55.393Z,37.58
2022-08-09T11:03:51.226Z,37.81
2022-08-09T11:07:55.791Z,37.89
2022-08-09T11:11:13.926Z,37.01
2022-08-09T11:14:38.213Z,36.84
2022-08-09T11:18:03.681Z,36.81
2022-08-09T11:21:57.229Z,36.82
2022-08-09T11:25:47.880Z,36.77
2022-08-09T11:30:05.074Z,36.64
2022-08-09T11:33:44.641Z,36.91
2022-08-09T11:37:18.326Z,36.65
2022-08-09T11:40:42.044Z,36.38
2022-08-09T11:44:05.783Z,37.22
2022-08-09T11:47:46.429Z,37.59
2022-08-09T11:53:00.618Z,37.28
2022-08-09T11:55:51.585Z,37.85
2022-08-09T11:59:33.018Z,37.30
2022-08-09T12:02:56.263Z,38.06
2022-08-09T12:06:26.453Z,37.20
2022-08-09T12:09:53.864Z,37.17
2022-08-09T12:14:08.474Z,37.27
2022-08-09T12:17:27.829Z,37.16
2022-08-09T12:20:57.446Z,37.25
2022-08-09T12:24:24.557Z,35.66
2022-08-09T12:28:59.954Z,35.23
2022-08-09T12:31:59.333Z,35.09
2022-08-09T12:35:19.078Z,35.99
2022-08-09T12:38:43.514Z,35.18
2022-08-09T12:42:09.032Z,35.10
2022-08-09T12:45:34.356Z,34.45
2022-08-09T12:49:00.972Z,35.43
2022-08-09T12:52:58.584Z,34.82
2022-08-09T12:56:12.209Z,35.33
2022-08-09T12:59:57.388Z,35.83
2022-08-09T13:03:54.087Z,35.48
2022-08-09T13:07:13.478Z,35.47
2022-08-09T13:10:46.667Z,35.07
2022-08-09T13:14:41.027Z,34.80
2022-08-09T13:18:05.851Z,34.52
2022-08-09T13:22:37.218Z,34.46
2022-08-09T13:25:14.946Z,34.46
2022-08-09T13:28:39.575Z,34.11
2022-08-09T13:32:16.285Z,33.22
2022-08-09T13:36:38.769Z,33.65
2022-08-09T13:41:20.953Z,34.21
2022-08-09T13:43:09.853Z,34.60
2022-08-09T13:47:15.900Z,35.03
2022-08-09T13:50:30.047Z,34.56
2022-08-09T13:53:52.942Z,34.86
2022-08-09T13:57:36.656Z,34.57
2022-08-09T14:00:58.635Z,34.32
2022-08-09T14:04:23.876Z,34.20
2022-08-09T14:07:49.263Z,34.10
2022-08-09T14:11:16.188Z,34.93
2022-08-09T14:14:37.986Z,35.88
2022-08-09T14:18:18.858Z,35.54
2022-08-09T14:21:43.284Z,35.90
2022-08-09T14:25:05.812Z,35.68
2022-08-09T14:28:32.755Z,35.32
2022-08-09T14:31:55.076Z,35.33
2022-08-09T14:35:17.254Z,34.95
2022-08-09T14:38:41.093Z,35.00
2022-08-09T14:42:03.627Z,34.55
2022-08-09T14:47:01.071Z,34.37
2022-08-09T14:49:10.588Z,34.22
2022-08-09T14:52:32.447Z,34.38
2022-08-09T14:55:56.290Z,34.29
2022-08-09T14:59:18.307Z,33.65
2022-08-09T15:02:42.821Z,33.72
2022-08-09T15:06:11.063Z,33.03
2022-08-09T15:10:07.099Z,33.36
2022-08-09T15:13:16.274Z,34.03
2022-08-09T15:16:38.338Z,34.29
2022-08-09T15:20:02.665Z,33.39
2022-08-09T15:24:03.689Z,33.60
2022-08-09T15:27:07.240Z,34.08
2022-08-09T15:30:48.656Z,34.75
2022-08-09T15:34:31.977Z,33.56
2022-08-09T15:37:57.197Z,33.84
2022-08-09T15:41:33.331Z,34.05
2022-08-09T15:44:58.284Z,33.50
2022-08-09T15:48:28.522Z,33.45
2022-08-09T15:52:04.827Z,33.75
2022-08-09T15:55:27.307Z,33.63
2022-08-09T15:58:49.863Z,34.63
2022-08-09T16:02:15.886Z,33.79
2022-08-09T16:05:53.804Z,34.12
2022-08-09T16:09:16.898Z,33.91
2022-08-09T16:12:50.238Z,33.54
2022-08-09T16:16:17.170Z,33.25
2022-08-09T16:19:49.350Z,32.95
2022-08-09T16:23:23.101Z,32.52
2022-08-09T16:26:48.710Z,32.25
2022-08-09T16:30:16.863Z,31.94
2022-08-09T16:33:51.306Z,31.94
2022-08-09T16:37:13.316Z,31.58
2022-08-09T16:40:40.711Z,32.41
2022-08-09T16:44:03.330Z,31.86
2022-08-09T16:48:40.749Z,32.22
2022-08-09T16:51:08.635Z,32.81
2022-08-09T16:54:36.441Z,33.06
2022-08-09T16:58:10.164Z,32.49
2022-08-09T17:01:33.759Z,32.64
2022-08-09T17:04:56.049Z,32.91
2022-08-09T17:08:46.140Z,32.34
2022-08-09T17:11:59.463Z,33.17
2022-08-09T17:15:31.213Z,33.29
2022-08-09T17:19:05.168Z,33.56
2022-08-09T17:22:30.936Z,34.13
2022-08-09T17:25:54.897Z,34.78
2022-08-09T17:29:20.361Z,34.97
2022-08-09T17:32:44.034Z,34.95
2022-08-09T17:36:09.154Z,35.42
2022-08-09T17:39:52.168Z,35.54
2022-08-09T17:43:34.641Z,36.07
2022-08-09T17:46:57.881Z,35.84
2022-08-09T17:50:36.076Z,36.54
2022-08-09T17:53:59.802Z,36.28
2022-08-09T17:58:02.076Z,36.59
2022-08-09T18:01:03.820Z,36.99
2022-08-09T18:04:25.516Z,37.28
2022-08-09T18:07:48.974Z,37.75
2022-08-09T18:11:16.382Z,37.92
2022-08-09T18:14:42.185Z,37.92
2022-08-09T18:18:25.380Z,38.48
2022-08-09T18:21:50.386Z,38.76
2022-08-09T18:25:15.921Z,39.01
2022-08-09T18:30:39.001Z,38.94
2022-08-09T18:32:19.272Z,39.30
2022-08-09T18:35:58.122Z,39.40
2022-08-09T18:39:22.255Z,39.69
2022-08-09T18:42:46.713Z,39.83
2022-08-09T18:46:48.545Z,40.20
2022-08-09T18:49:50.322Z,40.42
2022-08-09T18:53:13.754Z,40.67
2022-08-09T18:56:38.532Z,41.03
2022-08-09T19:00:04.489Z,41.43
2022-08-09T19:03:26.767Z,41.69
2022-08-09T19:06:51.032Z,42.18
2022-08-09T19:10:17.623Z,42.43
2022-08-09T19:13:51.276Z,42.67
2022-08-09T19:17:15.135Z,42.95
2022-08-09T19:20:38.912Z,43.05
2022-08-09T19:24:33.555Z,43.35
2022-08-09T19:27:43.494Z,43.45
2022-08-09T19:31:07.824Z,43.64
2022-08-09T19:34:31.170Z,43.81
2022-08-09T19:37:56.154Z,43.98
2022-08-09T19:41:33.361Z,44.28
2022-08-09T19:44:57.570Z,44.33
2022-08-09T19:49:00.292Z,44.63
2022-08-09T19:52:02.788Z,44.79
2022-08-09T19:55:30.396Z,44.89
2022-08-09T19:58:56.422Z,45.19
2022-08-09T20:04:07.437Z,45.51
2022-08-09T20:06:23.039Z,45.78
2022-08-09T20:09:47.292Z,45.88
2022-08-09T20:13:10.431Z,46.57
2022-08-09T20:16:48.981Z,46.59
2022-08-09T20:20:14.768Z,46.78
2022-08-09T20:23:38.996Z,47.08
2022-08-09T20:27:08.056Z,47.38
2022-08-09T20:30:30.555Z,47.67
2022-08-09T20:33:58.344Z,48.03
2022-08-09T20:37:23.286Z,48.15
2022-08-09T20:40:45.100Z,48.72
2022-08-09T20:44:12.401Z,49.22
2022-08-09T20:47:48.014Z,49.28
2022-08-09T20:51:19.232Z,49.50
2022-08-09T20:54:52.737Z,50.07
2022-08-09T20:58:20.225Z,50.10
2022-08-09T21:01:50.500Z,50.36
2022-08-09T21:05:56.425Z,50.99
2022-08-09T21:08:55.053Z,51.21
2022-08-09T21:15:52.075Z,51.57
2022-08-09T21:20:18.242Z,51.85
2022-08-09T21:23:02.001Z,52.21
2022-08-09T21:26:24.212Z,52.56
2022-08-09T21:29:49.015Z,53.15
2022-08-09T21:33:10.982Z,53.54
2022-08-09T21:36:39.293Z,53.72
2022-08-09T21:40:30.383Z,54.22
2022-08-09T21:43:57.888Z,54.54
2022-08-09T21:47:20.377Z,54.83
2022-08-09T21:50:43.453Z,55.10
2022-08-09T21:54:13.697Z,55.30
2022-08-09T21:57:59.181Z,55.42
2022-08-09T22:01:44.845Z,55.98
2022-08-09T22:05:16.769Z,56.50
2022-08-09T22:08:44.120Z,56.38
2022-08-09T22:12:18.348Z,56.67
2022-08-09T22:15:40.723Z,57.15
2022-08-09T22:19:02.302Z,57.52
2022-08-09T22:22:44.416Z,57.77
2022-08-09T22:26:12.595Z,58.06
2022-08-09T22:29:48.748Z,58.16
2022-08-09T22:33:12.149Z,58.31
2022-08-09T22:36:46.232Z,58.48
2022-08-09T22:40:18.224Z,58.86
2022-08-09T22:44:01.944Z,59.53
2022-08-09T22:48:15.519Z,59.95
2022-08-09T22:51:10.270Z,60.00
2022-08-09T22:54:32.754Z,60.93
2022-08-09T22:58:00.102Z,61.03
2022-08-09T23:01:21.933Z,61.31
2022-08-09T23:04:53.668Z,61.54
2022-08-09T23:08:33.959Z,61.62
2022-08-09T23:11:55.969Z,62.00
2022-08-09T23:15:17.774Z,62.40
2022-08-09T23:18:39.886Z,62.42
2022-08-09T23:22:03.504Z,62.82
2022-08-09T23:25:25.663Z,62.73
2022-08-09T23:28:47.466Z,63.58
2022-08-09T23:32:09.257Z,63.87
2022-08-09T23:35:30.767Z,64.03
2022-08-09T23:39:13.727Z,64.41
2022-08-09T23:42:35.729Z,64.73
2022-08-09T23:45:57.342Z,64.83
2022-08-09T23:49:24.600Z,65.30
2022-08-09T23:52:46.659Z,65.57
2022-08-09T23:56:12.162Z,65.96
2022-08-09T23:59:48.209Z,66.33
